Alabama Port, Alabama
Current Conditions -  °F | °C
As of 9:53 AM on Monday 24 Nov 2014 (Local Time) from KBFM Reporting Station
Clear Clear  
Wind Chill: 75°   Ceiling: Unl
Heat Index: 75°   Visibility: 10mi
Dew Point: 63°   Wind: 6mph
Humidity: 66%   Direction: NA
Pressure: 29.87"   Gusts: NA
Location:  30.4032°N, 88.1801°W
Report Text: KBFM 241553Z VRB05KT 10SM CLR 24/17 A2987 RMK AO2 SLP115 T02390172
Loading
Personal Weather Stations






























Interactive Weather Map New forecast layout! Learn more

10-Day Weather Forecast

Advertisements
Track Severe Weather on mobile